sensor_id;sensor_type;location;lat;lon;timestamp;pressure;altitude;pressure_sealevel;temperature;humidity
72262;BME280;60173;52.112;8.648;2023-02-21T00:01:00;100799.53;;;7.60;100.00
72262;BME280;60173;52.112;8.648;2023-02-21T00:03:27;100806.00;;;7.54;100.00
72262;BME280;60173;52.112;8.648;2023-02-21T00:05:53;100797.38;;;7.62;100.00
72262;BME280;60173;52.112;8.648;2023-02-21T00:08:19;100794.41;;;7.64;100.00
72262;BME280;60173;52.112;8.648;2023-02-21T00:10:46;100801.13;;;7.66;100.00
72262;BME280;60173;52.112;8.648;2023-02-21T00:13:12;100783.31;;;7.70;100.00
72262;BME280;60173;52.112;8.648;2023-02-21T00:15:38;100783.56;;;7.69;100.00
72262;BME280;60173;52.112;8.648;2023-02-21T00:18:05;100784.41;;;7.69;100.00
72262;BME280;60173;52.112;8.648;2023-02-21T00:20:31;100786.81;;;7.66;100.00
72262;BME280;60173;52.112;8.648;2023-02-21T00:22:57;100784.94;;;7.77;100.00
72262;BME280;60173;52.112;8.648;2023-02-21T00:25:24;100786.53;;;7.78;100.00
72262;BME280;60173;52.112;8.648;2023-02-21T00:27:50;100791.16;;;7.67;100.00
72262;BME280;60173;52.112;8.648;2023-02-21T00:30:17;100792.25;;;7.76;100.00
72262;BME280;60173;52.112;8.648;2023-02-21T00:32:43;100793.88;;;7.67;100.00
72262;BME280;60173;52.112;8.648;2023-02-21T00:35:10;100795.19;;;7.75;100.00
72262;BME280;60173;52.112;8.648;2023-02-21T00:37:36;100778.44;;;7.78;100.00
72262;BME280;60173;52.112;8.648;2023-02-21T00:40:03;100792.78;;;7.68;100.00
72262;BME280;60173;52.112;8.648;2023-02-21T00:42:30;100792.22;;;7.66;100.00
72262;BME280;60173;52.112;8.648;2023-02-21T00:44:56;100796.53;;;7.72;100.00
72262;BME280;60173;52.112;8.648;2023-02-21T00:47:22;100787.63;;;7.82;100.00
72262;BME280;60173;52.112;8.648;2023-02-21T00:49:49;100789.25;;;7.78;100.00
72262;BME280;60173;52.112;8.648;2023-02-21T00:52:15;100791.97;;;7.73;100.00
72262;BME280;60173;52.112;8.648;2023-02-21T00:54:41;100774.91;;;7.77;100.00
72262;BME280;60173;52.112;8.648;2023-02-21T00:57:07;100767.09;;;7.76;100.00
72262;BME280;60173;52.112;8.648;2023-02-21T00:59:34;100778.72;;;7.71;100.00
72262;BME280;60173;52.112;8.648;2023-02-21T01:02:00;100764.41;;;7.76;100.00
72262;BME280;60173;52.112;8.648;2023-02-21T01:04:26;100770.88;;;7.69;100.00
72262;BME280;60173;52.112;8.648;2023-02-21T01:06:53;100781.16;;;7.62;100.00
72262;BME280;60173;52.112;8.648;2023-02-21T01:09:19;100764.94;;;7.62;100.00
72262;BME280;60173;52.112;8.648;2023-02-21T01:11:45;100778.16;;;7.74;100.00
72262;BME280;60173;52.112;8.648;2023-02-21T01:14:12;100772.78;;;7.79;100.00
72262;BME280;60173;52.112;8.648;2023-02-21T01:16:38;100766.00;;;7.77;100.00
72262;BME280;60173;52.112;8.648;2023-02-21T01:19:05;100774.63;;;7.84;100.00
72262;BME280;60173;52.112;8.648;2023-02-21T01:21:31;100776.28;;;7.80;100.00
72262;BME280;60173;52.112;8.648;2023-02-21T01:23:57;100781.16;;;7.93;100.00
72262;BME280;60173;52.112;8.648;2023-02-21T01:26:24;100781.66;;;7.95;100.00
72262;BME280;60173;52.112;8.648;2023-02-21T01:28:50;100785.47;;;7.74;100.00
72262;BME280;60173;52.112;8.648;2023-02-21T01:31:20;100782.75;;;7.68;100.00
72262;BME280;60173;52.112;8.648;2023-02-21T01:33:46;100793.03;;;7.82;100.00
72262;BME280;60173;52.112;8.648;2023-02-21T01:36:13;100786.28;;;7.84;100.00
72262;BME280;60173;52.112;8.648;2023-02-21T01:38:39;100804.38;;;7.94;100.00
72262;BME280;60173;52.112;8.648;2023-02-21T01:41:05;100801.16;;;7.87;100.00
72262;BME280;60173;52.112;8.648;2023-02-21T01:43:32;100794.13;;;7.91;100.00
72262;BME280;60173;52.112;8.648;2023-02-21T01:45:58;100796.28;;;7.84;100.00
72262;BME280;60173;52.112;8.648;2023-02-21T01:48:25;100797.34;;;7.78;100.00
72262;BME280;60173;52.112;8.648;2023-02-21T01:50:53;100796.56;;;7.82;100.00
72262;BME280;60173;52.112;8.648;2023-02-21T01:53:23;100794.38;;;7.95;100.00
72262;BME280;60173;52.112;8.648;2023-02-21T01:55:51;100789.25;;;7.88;100.00
72262;BME280;60173;52.112;8.648;2023-02-21T01:58:20;100790.06;;;7.88;100.00
72262;BME280;60173;52.112;8.648;2023-02-21T02:00:48;100790.31;;;7.92;100.00
72262;BME280;60173;52.112;8.648;2023-02-21T02:03:17;100787.09;;;7.90;100.00
72262;BME280;60173;52.112;8.648;2023-02-21T02:05:47;100793.03;;;7.97;100.00
72262;BME280;60173;52.112;8.648;2023-02-21T02:08:17;100779.50;;;7.92;100.00
72262;BME280;60173;52.112;8.648;2023-02-21T02:10:52;100788.44;;;7.77;100.00
72262;BME280;60173;52.112;8.648;2023-02-21T02:13:28;100786.81;;;7.86;100.00
72262;BME280;60173;52.112;8.648;2023-02-21T02:16:25;100797.09;;;7.84;100.00
72262;BME280;60173;52.112;8.648;2023-02-21T02:22:07;100795.47;;;7.93;100.00
72262;BME280;60173;52.112;8.648;2023-02-21T02:24:50;100796.53;;;7.92;100.00
72262;BME280;60173;52.112;8.648;2023-02-21T02:35:37;100793.06;;;7.87;100.00
72262;BME280;60173;52.112;8.648;2023-02-21T02:43:37;100798.47;;;7.87;100.00
72262;BME280;60173;52.112;8.648;2023-02-21T02:46:16;100795.19;;;7.80;100.00
72262;BME280;60173;52.112;8.648;2023-02-21T02:49:09;100792.50;;;7.80;100.00
72262;BME280;60173;52.112;8.648;2023-02-21T02:51:37;100788.72;;;7.86;100.00
72262;BME280;60173;52.112;8.648;2023-02-21T02:54:04;100783.84;;;7.78;100.00
72262;BME280;60173;52.112;8.648;2023-02-21T02:56:30;100792.22;;;7.66;100.00
72262;BME280;60173;52.112;8.648;2023-02-21T02:59:10;100794.41;;;7.64;100.00
72262;BME280;60173;52.112;8.648;2023-02-21T03:04:39;100798.44;;;7.77;100.00
72262;BME280;60173;52.112;8.648;2023-02-21T03:10:10;100816.84;;;7.85;100.00
72262;BME280;60173;52.112;8.648;2023-02-21T03:15:48;100810.34;;;7.91;100.00
72262;BME280;60173;52.112;8.648;2023-02-21T03:18:36;100811.97;;;7.87;100.00
72262;BME280;60173;52.112;8.648;2023-02-21T03:21:10;100828.47;;;7.85;100.00
72262;BME280;60173;52.112;8.648;2023-02-21T03:23:39;100814.94;;;7.90;100.00
72262;BME280;60173;52.112;8.648;2023-02-21T03:26:09;100823.59;;;7.72;100.00
72262;BME280;60173;52.112;8.648;2023-02-21T03:28:37;100829.56;;;7.79;100.00
72262;BME280;60173;52.112;8.648;2023-02-21T03:31:04;100829.56;;;7.79;100.00
72262;BME280;60173;52.112;8.648;2023-02-21T03:33:32;100834.66;;;7.81;100.00
72262;BME280;60173;52.112;8.648;2023-02-21T03:35:59;100824.41;;;7.83;100.00
72262;BME280;60173;52.112;8.648;2023-02-21T03:38:29;100823.88;;;7.86;100.00
72262;BME280;60173;52.112;8.648;2023-02-21T03:40:56;100820.91;;;7.87;100.00
72262;BME280;60173;52.112;8.648;2023-02-21T03:43:23;100820.34;;;7.85;100.00
72262;BME280;60173;52.112;8.648;2023-02-21T03:45:49;100815.50;;;7.87;100.00
72262;BME280;60173;52.112;8.648;2023-02-21T03:48:16;100820.63;;;7.79;100.00
72262;BME280;60173;52.112;8.648;2023-02-21T03:50:56;100820.59;;;7.84;100.00
72262;BME280;60173;52.112;8.648;2023-02-21T03:53:22;100811.44;;;7.85;100.00
72262;BME280;60173;52.112;8.648;2023-02-21T03:55:49;100826.31;;;7.82;100.00
72262;BME280;60173;52.112;8.648;2023-02-21T03:58:15;100819.00;;;7.78;100.00
72262;BME280;60173;52.112;8.648;2023-02-21T04:00:41;100810.09;;;7.87;100.00
72262;BME280;60173;52.112;8.648;2023-02-21T04:03:08;100802.22;;;7.86;100.00
72262;BME280;60173;52.112;8.648;2023-02-21T04:05:34;100801.16;;;7.87;100.00
72262;BME280;60173;52.112;8.648;2023-02-21T04:08:01;100800.34;;;7.81;100.00
72262;BME280;60173;52.112;8.648;2023-02-21T04:10:28;100794.38;;;7.95;100.00
72262;BME280;60173;52.112;8.648;2023-02-21T04:12:54;100809.78;;;7.84;100.00
72262;BME280;60173;52.112;8.648;2023-02-21T04:15:20;100805.22;;;7.84;100.00
72262;BME280;60173;52.112;8.648;2023-02-21T04:17:47;100800.88;;;7.83;100.00
72262;BME280;60173;52.112;8.648;2023-02-21T04:20:14;100808.19;;;7.73;100.00
72262;BME280;60173;52.112;8.648;2023-02-21T04:22:40;100804.94;;;7.86;100.00
72262;BME280;60173;52.112;8.648;2023-02-21T04:25:07;100812.22;;;7.80;100.00
72262;BME280;60173;52.112;8.648;2023-02-21T04:27:34;100817.91;;;7.84;100.00
72262;BME280;60173;52.112;8.648;2023-02-21T04:30:00;100813.88;;;7.81;100.00
72262;BME280;60173;52.112;8.648;2023-02-21T04:32:27;100808.72;;;7.80;100.00
72262;BME280;60173;52.112;8.648;2023-02-21T04:34:53;100805.75;;;7.71;100.00
72262;BME280;60173;52.112;8.648;2023-02-21T04:37:19;100809.00;;;7.68;100.00
72262;BME280;60173;52.112;8.648;2023-02-21T04:39:46;100811.97;;;7.82;100.00
72262;BME280;60173;52.112;8.648;2023-02-21T04:42:12;100805.22;;;7.64;100.00
72262;BME280;60173;52.112;8.648;2023-02-21T04:44:38;100801.97;;;7.62;100.00
72262;BME280;60173;52.112;8.648;2023-02-21T04:47:06;100802.50;;;7.69;100.00
72262;BME280;60173;52.112;8.648;2023-02-21T04:49:33;100800.88;;;7.68;100.00
72262;BME280;60173;52.112;8.648;2023-02-21T04:51:59;100789.78;;;7.80;100.00
72262;BME280;60173;52.112;8.648;2023-02-21T04:54:25;100797.38;;;7.83;100.00
72262;BME280;60173;52.112;8.648;2023-02-21T04:56:52;100794.13;;;7.81;100.00
72262;BME280;60173;52.112;8.648;2023-02-21T04:59:18;100800.63;;;7.90;100.00
72262;BME280;60173;52.112;8.648;2023-02-21T05:01:44;100805.50;;;7.73;100.00
72262;BME280;60173;52.112;8.648;2023-02-21T05:04:11;100800.59;;;7.75;100.00
72262;BME280;60173;52.112;8.648;2023-02-21T05:06:38;100789.81;;;7.85;100.00
72262;BME280;60173;52.112;8.648;2023-02-21T05:09:05;100791.97;;;7.83;100.00
72262;BME280;60173;52.112;8.648;2023-02-21T05:11:33;100791.16;;;7.77;100.00
72262;BME280;60173;52.112;8.648;2023-02-21T05:13:59;100781.13;;;7.78;100.00
72262;BME280;60173;52.112;8.648;2023-02-21T05:16:26;100782.22;;;7.77;100.00
72262;BME280;60173;52.112;8.648;2023-02-21T05:18:52;100782.78;;;7.79;100.00
72262;BME280;60173;52.112;8.648;2023-02-21T05:21:19;100779.53;;;7.72;100.00
72262;BME280;60173;52.112;8.648;2023-02-21T05:23:46;100774.13;;;7.72;100.00
72262;BME280;60173;52.112;8.648;2023-02-21T05:26:12;100770.34;;;7.67;100.00
72262;BME280;60173;52.112;8.648;2023-02-21T05:28:39;100769.53;;;7.82;100.00
72262;BME280;60173;52.112;8.648;2023-02-21T05:31:06;100771.13;;;7.83;100.00
72262;BME280;60173;52.112;8.648;2023-02-21T05:33:33;100764.66;;;7.79;100.00
72262;BME280;60173;52.112;8.648;2023-02-21T05:35:59;100763.31;;;7.82;100.00
72262;BME280;60173;52.112;8.648;2023-02-21T05:38:26;100770.88;;;7.80;100.00
72262;BME280;60173;52.112;8.648;2023-02-21T05:40:53;100768.44;;;7.83;100.00
72262;BME280;60173;52.112;8.648;2023-02-21T05:43:19;100765.47;;;7.90;100.00
72262;BME280;60173;52.112;8.648;2023-02-21T05:45:45;100759.50;;;7.83;100.00
72262;BME280;60173;52.112;8.648;2023-02-21T05:48:12;100774.13;;;7.82;100.00
72262;BME280;60173;52.112;8.648;2023-02-21T05:50:38;100769.78;;;7.86;100.00
72262;BME280;60173;52.112;8.648;2023-02-21T05:53:05;100776.81;;;7.87;100.00
72262;BME280;60173;52.112;8.648;2023-02-21T05:55:31;100780.59;;;7.91;100.00
72262;BME280;60173;52.112;8.648;2023-02-21T05:57:58;100773.03;;;7.88;100.00
72262;BME280;60173;52.112;8.648;2023-02-21T06:00:27;100773.31;;;7.81;100.00
72262;BME280;60173;52.112;8.648;2023-02-21T06:02:55;100776.28;;;7.75;100.00
72262;BME280;60173;52.112;8.648;2023-02-21T06:05:22;100777.09;;;7.80;100.00
72262;BME280;60173;52.112;8.648;2023-02-21T06:07:48;100773.56;;;7.75;100.00
72262;BME280;60173;52.112;8.648;2023-02-21T06:10:16;100766.53;;;7.63;100.00
72262;BME280;60173;52.112;8.648;2023-02-21T06:12:42;100770.06;;;7.74;100.00
72262;BME280;60173;52.112;8.648;2023-02-21T06:15:09;100771.41;;;7.66;100.00
72262;BME280;60173;52.112;8.648;2023-02-21T06:17:36;100769.81;;;7.76;100.00
72262;BME280;60173;52.112;8.648;2023-02-21T06:20:04;100776.81;;;7.77;100.00
72262;BME280;60173;52.112;8.648;2023-02-21T06:22:31;100778.47;;;7.73;100.00
72262;BME280;60173;52.112;8.648;2023-02-21T06:24:57;100773.03;;;7.67;100.00
72262;BME280;60173;52.112;8.648;2023-02-21T06:27:24;100769.25;;;7.58;100.00
72262;BME280;60173;52.112;8.648;2023-02-21T06:29:50;100782.25;;;7.61;100.00
72262;BME280;60173;52.112;8.648;2023-02-21T06:32:16;100776.81;;;7.56;100.00
72262;BME280;60173;52.112;8.648;2023-02-21T06:34:43;100788.72;;;7.50;100.00
72262;BME280;60173;52.112;8.648;2023-02-21T06:37:10;100783.56;;;7.48;100.00
72262;BME280;60173;52.112;8.648;2023-02-21T06:39:39;100782.78;;;7.53;100.00
72262;BME280;60173;52.112;8.648;2023-02-21T06:42:05;100784.38;;;7.59;100.00
72262;BME280;60173;52.112;8.648;2023-02-21T06:44:32;100782.25;;;7.61;100.00
72262;BME280;60173;52.112;8.648;2023-02-21T06:46:58;100787.09;;;7.54;100.00
72262;BME280;60173;52.112;8.648;2023-02-21T06:49:24;100788.19;;;7.53;100.00
72262;BME280;60173;52.112;8.648;2023-02-21T06:51:51;100799.53;;;7.50;100.00
72262;BME280;60173;52.112;8.648;2023-02-21T06:54:17;100795.72;;;7.51;100.00
72262;BME280;60173;52.112;8.648;2023-02-21T06:56:43;100799.78;;;7.54;100.00
72262;BME280;60173;52.112;8.648;2023-02-21T06:59:10;100803.31;;;7.59;100.00
72262;BME280;60173;52.112;8.648;2023-02-21T07:01:36;100807.91;;;7.54;100.00
72262;BME280;60173;52.112;8.648;2023-02-21T07:04:02;100807.88;;;7.48;100.00
72262;BME280;60173;52.112;8.648;2023-02-21T07:06:29;100807.88;;;7.48;100.00
72262;BME280;60173;52.112;8.648;2023-02-21T07:08:56;100813.59;;;7.47;100.00
72262;BME280;60173;52.112;8.648;2023-02-21T07:11:22;100811.41;;;7.44;100.00
72262;BME280;60173;52.112;8.648;2023-02-21T07:13:50;100820.03;;;7.46;100.00
72262;BME280;60173;52.112;8.648;2023-02-21T07:16:17;100816.00;;;7.54;100.00
72262;BME280;60173;52.112;8.648;2023-02-21T07:18:44;100818.97;;;7.57;100.00
72262;BME280;60173;52.112;8.648;2023-02-21T07:21:12;100825.44;;;7.46;100.00
72262;BME280;60173;52.112;8.648;2023-02-21T07:23:39;100824.13;;;7.59;100.00
72262;BME280;60173;52.112;8.648;2023-02-21T07:26:05;100823.88;;;7.55;100.00
72262;BME280;60173;52.112;8.648;2023-02-21T07:28:32;100823.88;;;7.55;100.00
72262;BME280;60173;52.112;8.648;2023-02-21T07:30:58;100833.56;;;7.51;100.00
72262;BME280;60173;52.112;8.648;2023-02-21T07:33:24;100835.50;;;7.61;100.00
72262;BME280;60173;52.112;8.648;2023-02-21T07:35:51;100833.59;;;7.66;100.00
72262;BME280;60173;52.112;8.648;2023-02-21T07:38:24;100833.59;;;7.72;100.00
72262;BME280;60173;52.112;8.648;2023-02-21T07:40:54;100839.25;;;7.75;100.00
72262;BME280;60173;52.112;8.648;2023-02-21T07:43:20;100839.00;;;7.72;100.00
72262;BME280;60173;52.112;8.648;2023-02-21T07:45:47;100837.94;;;7.67;100.00
72262;BME280;60173;52.112;8.648;2023-02-21T07:48:13;100834.69;;;7.70;100.00
72262;BME280;60173;52.112;8.648;2023-02-21T07:50:40;100842.53;;;7.67;100.00
72262;BME280;60173;52.112;8.648;2023-02-21T07:53:07;100837.63;;;7.69;100.00
72262;BME280;60173;52.112;8.648;2023-02-21T07:55:36;100836.03;;;7.73;100.00
72262;BME280;60173;52.112;8.648;2023-02-21T07:58:03;100843.59;;;7.76;100.00
72262;BME280;60173;52.112;8.648;2023-02-21T08:00:31;100837.38;;;7.81;100.00
72262;BME280;60173;52.112;8.648;2023-02-21T08:02:57;100836.31;;;7.77;100.00
72262;BME280;60173;52.112;8.648;2023-02-21T08:05:24;100836.84;;;7.74;100.00
72262;BME280;60173;52.112;8.648;2023-02-21T08:07:50;100842.00;;;7.85;100.00
72262;BME280;60173;52.112;8.648;2023-02-21T08:10:25;100841.69;;;7.66;100.00
72262;BME280;60173;52.112;8.648;2023-02-21T08:12:52;100844.41;;;7.61;100.00
72262;BME280;60173;52.112;8.648;2023-02-21T08:15:18;100843.34;;;7.73;100.00
72262;BME280;60173;52.112;8.648;2023-02-21T08:17:48;100851.44;;;7.78;100.00
72262;BME280;60173;52.112;8.648;2023-02-21T08:20:16;100852.00;;;7.85;100.00
72262;BME280;60173;52.112;8.648;2023-02-21T08:22:43;100853.88;;;7.74;100.00
72262;BME280;60173;52.112;8.648;2023-02-21T08:25:10;100850.38;;;7.89;100.00
72262;BME280;60173;52.112;8.648;2023-02-21T08:27:38;100856.31;;;7.86;100.00
72262;BME280;60173;52.112;8.648;2023-02-21T08:30:05;100856.03;;;7.92;100.00
72262;BME280;60173;52.112;8.648;2023-02-21T08:32:33;100859.56;;;7.88;100.00
72262;BME280;60173;52.112;8.648;2023-02-21T08:35:00;100854.16;;;7.88;100.00
72262;BME280;60173;52.112;8.648;2023-02-21T08:37:26;100861.75;;;7.96;100.00
72262;BME280;60173;52.112;8.648;2023-02-21T08:39:52;100860.09;;;7.95;100.00
72262;BME280;60173;52.112;8.648;2023-02-21T08:42:19;100865.78;;;8.04;100.00
72262;BME280;60173;52.112;8.648;2023-02-21T08:44:46;100858.22;;;8.16;100.00
72262;BME280;60173;52.112;8.648;2023-02-21T08:47:14;100869.28;;;8.09;100.00
72262;BME280;60173;52.112;8.648;2023-02-21T08:49:45;100869.28;;;8.14;100.00
72262;BME280;60173;52.112;8.648;2023-02-21T08:52:16;100866.06;;;8.07;100.00
72262;BME280;60173;52.112;8.648;2023-02-21T08:54:44;100865.53;;;8.05;100.00
72262;BME280;60173;52.112;8.648;2023-02-21T08:57:10;100865.50;;;8.15;100.00
72262;BME280;60173;52.112;8.648;2023-02-21T08:59:43;100862.00;;;8.20;100.00
72262;BME280;60173;52.112;8.648;2023-02-21T09:02:19;100861.69;;;8.27;100.00
72262;BME280;60173;52.112;8.648;2023-02-21T09:04:45;100868.22;;;8.41;99.99
72262;BME280;60173;52.112;8.648;2023-02-21T09:07:13;100873.06;;;8.44;99.60
72262;BME280;60173;52.112;8.648;2023-02-21T09:09:40;100862.78;;;8.41;98.94
72262;BME280;60173;52.112;8.648;2023-02-21T09:12:07;100868.72;;;8.38;98.89
72262;BME280;60173;52.112;8.648;2023-02-21T09:14:38;100868.50;;;8.45;99.22
72262;BME280;60173;52.112;8.648;2023-02-21T09:17:06;100861.72;;;8.42;99.13
72262;BME280;60173;52.112;8.648;2023-02-21T09:19:33;100862.00;;;8.51;98.70
72262;BME280;60173;52.112;8.648;2023-02-21T09:22:00;100869.31;;;8.45;98.35
72262;BME280;60173;52.112;8.648;2023-02-21T09:24:27;100871.41;;;8.64;98.41
72262;BME280;60173;52.112;8.648;2023-02-21T09:26:55;100877.13;;;8.57;97.82
72262;BME280;60173;52.112;8.648;2023-02-21T09:29:21;100876.53;;;8.70;97.61
72262;BME280;60173;52.112;8.648;2023-02-21T09:31:48;100870.06;;;8.61;97.31
72262;BME280;60173;52.112;8.648;2023-02-21T09:34:15;100876.31;;;8.56;97.00
72262;BME280;60173;52.112;8.648;2023-02-21T09:36:41;100876.59;;;8.50;97.84
72262;BME280;60173;52.112;8.648;2023-02-21T09:39:08;100867.16;;;8.42;97.95
72262;BME280;60173;52.112;8.648;2023-02-21T09:41:36;100872.53;;;8.57;97.86
72262;BME280;60173;52.112;8.648;2023-02-21T09:44:05;100881.44;;;8.58;97.20
72262;BME280;60173;52.112;8.648;2023-02-21T09:46:39;100879.00;;;8.67;97.32
72262;BME280;60173;52.112;8.648;2023-02-21T09:49:16;100873.81;;;8.70;97.08
72262;BME280;60173;52.112;8.648;2023-02-21T09:51:48;100872.72;;;8.81;96.80
72262;BME280;60173;52.112;8.648;2023-02-21T09:54:24;100862.84;;;9.11;95.46
72262;BME280;60173;52.112;8.648;2023-02-21T09:56:53;100863.06;;;9.25;94.08
72262;BME280;60173;52.112;8.648;2023-02-21T09:59:19;100871.13;;;9.35;93.21
72262;BME280;60173;52.112;8.648;2023-02-21T10:01:55;100875.44;;;9.41;92.81
72262;BME280;60173;52.112;8.648;2023-02-21T10:07:19;100867.31;;;9.36;92.44
72262;BME280;60173;52.112;8.648;2023-02-21T10:10:08;100875.47;;;9.31;92.62
72262;BME280;60173;52.112;8.648;2023-02-21T10:17:59;100871.25;;;9.15;93.11
72262;BME280;60173;52.112;8.648;2023-02-21T10:20:37;100875.97;;;8.83;94.36
72262;BME280;60173;52.112;8.648;2023-02-21T10:23:34;100882.19;;;8.84;95.10
72262;BME280;60173;52.112;8.648;2023-02-21T10:26:05;100869.66;;;9.03;94.98
72262;BME280;60173;52.112;8.648;2023-02-21T10:28:34;100879.63;;;9.13;94.74
72262;BME280;60173;52.112;8.648;2023-02-21T10:31:07;100875.59;;;9.11;94.51
72262;BME280;60173;52.112;8.648;2023-02-21T10:33:36;100874.53;;;9.07;94.73
72262;BME280;60173;52.112;8.648;2023-02-21T10:36:16;100876.13;;;9.08;94.31
72262;BME280;60173;52.112;8.648;2023-02-21T10:38:52;100879.38;;;9.10;94.79
72262;BME280;60173;52.112;8.648;2023-02-21T10:41:20;100878.28;;;9.11;94.21
72262;BME280;60173;52.112;8.648;2023-02-21T10:43:51;100875.53;;;9.26;93.98
72262;BME280;60173;52.112;8.648;2023-02-21T10:46:20;100880.88;;;9.36;93.10
72262;BME280;60173;52.112;8.648;2023-02-21T10:48:51;100877.06;;;9.42;92.52
72262;BME280;60173;52.112;8.648;2023-02-21T10:51:29;100877.53;;;9.55;91.78
72262;BME280;60173;52.112;8.648;2023-02-21T10:54:17;100874.31;;;9.47;92.01
72262;BME280;60173;52.112;8.648;2023-02-21T10:56:44;100878.16;;;9.41;91.50
72262;BME280;60173;52.112;8.648;2023-02-21T10:59:19;100875.16;;;9.43;91.66
72262;BME280;60173;52.112;8.648;2023-02-21T11:01:46;100872.38;;;9.53;91.95
72262;BME280;60173;52.112;8.648;2023-02-21T11:06:55;100871.78;;;9.66;91.70
72262;BME280;60173;52.112;8.648;2023-02-21T11:25:30;100867.16;;;9.67;91.09
72262;BME280;60173;52.112;8.648;2023-02-21T11:28:05;100867.72;;;9.64;91.11
72262;BME280;60173;52.112;8.648;2023-02-21T11:30:35;100860.16;;;9.56;91.93
72262;BME280;60173;52.112;8.648;2023-02-21T11:33:03;100868.91;;;9.47;91.99
72262;BME280;60173;52.112;8.648;2023-02-21T11:35:47;100881.88;;;9.56;91.88
72262;BME280;60173;52.112;8.648;2023-02-21T11:38:38;100871.56;;;9.58;91.15
72262;BME280;60173;52.112;8.648;2023-02-21T11:43:48;100871.34;;;9.83;90.08
72262;BME280;60173;52.112;8.648;2023-02-21T11:46:38;100866.59;;;9.70;91.06
72262;BME280;60173;52.112;8.648;2023-02-21T11:49:41;100867.13;;;9.72;90.92
72262;BME280;60173;52.112;8.648;2023-02-21T11:52:25;100864.00;;;9.55;90.78
72262;BME280;60173;52.112;8.648;2023-02-21T11:54:54;100859.38;;;9.55;91.61
72262;BME280;60173;52.112;8.648;2023-02-21T11:57:38;100862.06;;;9.55;91.29
72262;BME280;60173;52.112;8.648;2023-02-21T12:00:19;100858.59;;;9.49;91.77
72262;BME280;60173;52.112;8.648;2023-02-21T12:05:53;100859.59;;;9.59;91.27
72262;BME280;60173;52.112;8.648;2023-02-21T12:08:46;100857.34;;;9.71;90.82
72262;BME280;60173;52.112;8.648;2023-02-21T12:20:02;100853.69;;;9.51;91.60
72262;BME280;60173;52.112;8.648;2023-02-21T12:22:39;100848.06;;;9.77;90.96
72262;BME280;60173;52.112;8.648;2023-02-21T12:44:38;100843.09;;;9.55;91.97
72262;BME280;60173;52.112;8.648;2023-02-21T12:47:13;100838.97;;;9.63;91.92
72262;BME280;60173;52.112;8.648;2023-02-21T12:49:55;100832.50;;;9.59;91.74
72262;BME280;60173;52.112;8.648;2023-02-21T12:52:35;100830.94;;;9.47;91.86
72262;BME280;60173;52.112;8.648;2023-02-21T12:55:13;100833.44;;;9.39;92.42
72262;BME280;60173;52.112;8.648;2023-02-21T12:58:10;100832.13;;;9.31;92.62
72262;BME280;60173;52.112;8.648;2023-02-21T13:00:50;100833.09;;;9.45;92.82
72262;BME280;60173;52.112;8.648;2023-02-21T13:03:31;100826.72;;;9.70;91.50
72262;BME280;60173;52.112;8.648;2023-02-21T13:06:14;100822.63;;;9.73;90.61
72262;BME280;60173;52.112;8.648;2023-02-21T13:11:26;100822.84;;;9.77;90.63
72262;BME280;60173;52.112;8.648;2023-02-21T13:13:55;100831.38;;;9.60;90.70
72262;BME280;60173;52.112;8.648;2023-02-21T13:16:21;100825.84;;;9.41;91.98
72262;BME280;60173;52.112;8.648;2023-02-21T13:18:56;100814.22;;;9.35;92.95
72262;BME280;60173;52.112;8.648;2023-02-21T13:24:08;100820.22;;;9.27;93.18
72262;BME280;60173;52.112;8.648;2023-02-21T13:29:41;100806.22;;;9.15;93.96
72262;BME280;60173;52.112;8.648;2023-02-21T13:32:13;100805.47;;;8.94;94.48
72262;BME280;60173;52.112;8.648;2023-02-21T13:34:44;100808.00;;;8.80;95.59
72262;BME280;60173;52.112;8.648;2023-02-21T13:37:20;100811.28;;;8.77;96.09
72262;BME280;60173;52.112;8.648;2023-02-21T13:39:56;100810.72;;;8.80;96.63
72262;BME280;60173;52.112;8.648;2023-02-21T13:42:25;100810.19;;;8.73;97.02
72262;BME280;60173;52.112;8.648;2023-02-21T13:45:03;100805.31;;;8.75;97.21
72262;BME280;60173;52.112;8.648;2023-02-21T13:53:19;100794.56;;;8.44;98.10
72262;BME280;60173;52.112;8.648;2023-02-21T13:58:38;100797.84;;;8.41;98.09
72262;BME280;60173;52.112;8.648;2023-02-21T14:01:38;100791.31;;;8.47;98.40
72262;BME280;60173;52.112;8.648;2023-02-21T14:07:08;100798.94;;;8.40;97.87
72262;BME280;60173;52.112;8.648;2023-02-21T14:09:38;100794.63;;;8.39;98.31
72262;BME280;60173;52.112;8.648;2023-02-21T14:12:05;100788.91;;;8.46;98.31
72262;BME280;60173;52.112;8.648;2023-02-21T14:14:36;100791.88;;;8.44;98.05
72262;BME280;60173;52.112;8.648;2023-02-21T14:17:07;100787.00;;;8.51;98.00
72262;BME280;60173;52.112;8.648;2023-02-21T14:19:45;100788.59;;;8.52;98.30
72262;BME280;60173;52.112;8.648;2023-02-21T14:22:23;100780.50;;;8.47;97.72
72262;BME280;60173;52.112;8.648;2023-02-21T14:24:51;100780.50;;;8.37;98.09
72262;BME280;60173;52.112;8.648;2023-02-21T14:27:29;100785.13;;;8.36;98.20
72262;BME280;60173;52.112;8.648;2023-02-21T14:32:46;100788.41;;;8.08;99.27
72262;BME280;60173;52.112;8.648;2023-02-21T14:35:44;100796.25;;;8.20;99.82
72262;BME280;60173;52.112;8.648;2023-02-21T14:38:22;100792.19;;;8.17;100.00
72262;BME280;60173;52.112;8.648;2023-02-21T14:44:11;100798.94;;;8.20;100.00
72262;BME280;60173;52.112;8.648;2023-02-21T14:47:00;100790.00;;;8.29;100.00
72262;BME280;60173;52.112;8.648;2023-02-21T14:50:04;100797.31;;;8.34;99.86
72262;BME280;60173;52.112;8.648;2023-02-21T14:52:58;100790.78;;;8.30;99.48
72262;BME280;60173;52.112;8.648;2023-02-21T15:02:06;100793.00;;;8.18;99.42
72262;BME280;60173;52.112;8.648;2023-02-21T15:04:45;100792.16;;;8.27;99.11
72262;BME280;60173;52.112;8.648;2023-02-21T15:07:17;100786.78;;;8.17;99.02